Terminal Aerodrome Forecast
Issued by NWS

Home | Current Version | Previous Version | Text Only | Print | Product List | Glossary On
Versions: 1 2 3 4 5 6 7 8 9 10 11 12 13 14 15 16 17 18 19 20 21 22 23 24 25 26 27 28
000
FTUS45 KREV 142300 AAA
TAFRNO
TAF AMD
KRNO 142352Z 1500/1524 22014G22KT 4SM HZ FEW050 FEW110
     FM150400 VRB03KT 5SM HZ SKC
     FM152000 22012G22KT P6SM SCT100=

USA.gov is the U.S. government's official web portal to all federal, state and local government web resources and services.